Time;durP1;ratioP1;P1;durP2;ratioP2;P2;SDS_P1;SDS_P2;PMS_P1;PMS_P2;Temp;Humidity;BMP_temperature;BMP_pressure;BME280_temperature;BME280_humidity;BME280_pressure;Samples;Min_cycle;Max_cycle;Signal;HPM_P1;HPM_P2
2022/04/23 00:00:15;;;;;;;17.50;13.93;;;;;;;;;;4981724;28;20201;-72
2022/04/23 00:02:42;;;;;;;18.83;13.93;;;;;;;;;;4996162;28;20421;-73
2022/04/23 00:05:07;;;;;;;15.33;13.00;;;;;;;;;;4973084;28;20211;-73
2022/04/23 00:07:32;;;;;;;15.47;12.73;;;;;;;;;;4973572;28;20287;-72
2022/04/23 00:09:58;;;;;;;14.87;12.30;;;;;;;;;;4975854;28;20192;-72
2022/04/23 00:12:23;;;;;;;17.77;13.57;;;;;;;;;;4987991;28;20208;-73
2022/04/23 00:14:48;;;;;;;15.47;13.87;;;;;;;;;;4986073;28;20186;-73
2022/04/23 00:17:14;;;;;;;15.40;12.90;;;;;;;;;;4981969;28;20193;-72
2022/04/23 00:19:40;;;;;;;14.90;13.40;;;;;;;;;;4994219;28;20204;-73
2022/04/23 00:22:05;;;;;;;15.03;12.80;;;;;;;;;;4973834;28;20219;-73
2022/04/23 00:24:31;;;;;;;13.93;12.53;;;;;;;;;;4991356;28;20191;-73
2022/04/23 00:26:56;;;;;;;16.90;14.13;;;;;;;;;;4970961;28;20215;-73
2022/04/23 00:29:21;;;;;;;14.57;13.07;;;;;;;;;;4991901;28;20180;-73
2022/04/23 00:31:46;;;;;;;15.40;12.90;;;;;;;;;;4987495;28;20210;-73
2022/04/23 00:34:12;;;;;;;15.53;13.57;;;;;;;;;;4989439;28;20177;-73
2022/04/23 00:36:37;;;;;;;17.70;12.93;;;;;;;;;;4983040;28;20209;-73
2022/04/23 00:39:05;;;;;;;14.67;12.77;;;;;;;;;;4971827;28;20184;-73
2022/04/23 00:41:51;;;;;;;12.77;10.77;;;;;;;;;;4982854;28;20177;-73
2022/04/23 00:44:16;;;;;;;13.57;10.80;;;;;;;;;;4977394;28;20264;-73
2022/04/23 00:46:42;;;;;;;13.93;12.23;;;;;;;;;;4968861;28;20209;-73
2022/04/23 00:49:08;;;;;;;13.53;11.43;;;;;;;;;;4972246;28;20243;-73
2022/04/23 00:51:33;;;;;;;15.07;13.47;;;;;;;;;;4975586;28;20243;-73
2022/04/23 00:54:04;;;;;;;13.00;11.47;;;;;;;;;;4976642;28;20187;-73
2022/04/23 00:56:30;;;;;;;14.37;12.23;;;;;;;;;;4989149;28;20176;-73
2022/04/23 00:58:56;;;;;;;15.20;12.90;;;;;;;;;;4971206;28;20184;-73
2022/04/23 01:01:24;;;;;;;15.00;12.80;;;;;;;;;;4984963;28;20187;-73
2022/04/23 01:03:51;;;;;;;15.30;12.90;;;;;;;;;;4988315;28;20177;-73
2022/04/23 01:06:17;;;;;;;14.30;12.80;;;;;;;;;;4971425;28;20180;-73
2022/04/23 01:08:42;;;;;;;13.90;12.27;;;;;;;;;;4989190;28;20189;-73
2022/04/23 01:11:08;;;;;;;13.27;11.63;;;;;;;;;;4992536;28;20180;-73
2022/04/23 01:13:33;;;;;;;12.90;11.33;;;;;;;;;;4989798;28;20214;-74
2022/04/23 01:16:05;;;;;;;14.97;11.53;;;;;;;;;;4989645;28;20172;-72
2022/04/23 01:18:30;;;;;;;13.03;11.53;;;;;;;;;;4990330;28;20184;-73
2022/04/23 01:20:56;;;;;;;16.27;12.10;;;;;;;;;;4988213;28;20192;-72
2022/04/23 01:23:22;;;;;;;14.30;12.40;;;;;;;;;;4972741;28;20324;-73
2022/04/23 01:25:49;;;;;;;16.30;13.10;;;;;;;;;;4986664;28;20187;-73
2022/04/23 01:28:16;;;;;;;12.93;11.53;;;;;;;;;;4972789;28;20219;-73
2022/04/23 01:30:41;;;;;;;14.77;11.60;;;;;;;;;;4989640;28;20203;-73
2022/04/23 01:33:06;;;;;;;14.50;11.80;;;;;;;;;;4972244;28;20278;-72
2022/04/23 01:35:32;;;;;;;12.70;10.63;;;;;;;;;;4971266;28;20176;-73
2022/04/23 01:37:57;;;;;;;13.63;12.03;;;;;;;;;;4971168;28;20179;-73
2022/04/23 01:40:22;;;;;;;14.17;12.50;;;;;;;;;;4987551;28;20255;-73
2022/04/23 01:42:47;;;;;;;13.53;10.47;;;;;;;;;;4972524;28;20207;-73
2022/04/23 01:45:13;;;;;;;11.77;10.47;;;;;;;;;;4972697;28;20184;-72
2022/04/23 01:47:38;;;;;;;12.77;11.17;;;;;;;;;;4978733;28;20210;-72
2022/04/23 01:50:03;;;;;;;14.63;12.40;;;;;;;;;;4970753;28;20184;-73
2022/04/23 01:52:28;;;;;;;13.67;11.73;;;;;;;;;;4988261;28;20267;-73
2022/04/23 01:54:54;;;;;;;13.63;11.53;;;;;;;;;;4987629;28;20176;-73
2022/04/23 01:57:19;;;;;;;13.03;10.23;;;;;;;;;;4971412;28;20184;-73
2022/04/23 01:59:44;;;;;;;12.73;10.47;;;;;;;;;;4971498;28;20268;-73
2022/04/23 02:02:09;;;;;;;15.30;12.23;;;;;;;;;;4970359;28;20258;-73
2022/04/23 02:04:34;;;;;;;14.53;11.50;;;;;;;;;;4973122;28;20187;-73
2022/04/23 02:07:00;;;;;;;14.63;12.47;;;;;;;;;;4988831;28;20208;-73
2022/04/23 02:09:25;;;;;;;16.17;12.90;;;;;;;;;;4987686;28;20442;-73
2022/04/23 02:11:51;;;;;;;15.03;13.13;;;;;;;;;;4972268;28;20168;-73
2022/04/23 02:14:16;;;;;;;14.27;12.27;;;;;;;;;;4976478;28;20180;-73
2022/04/23 02:16:41;;;;;;;17.30;12.70;;;;;;;;;;4981088;28;20242;-73
2022/04/23 02:19:07;;;;;;;15.70;13.57;;;;;;;;;;4997128;28;20206;-73
2022/04/23 02:21:32;;;;;;;15.13;13.53;;;;;;;;;;4971247;28;20248;-72
2022/04/23 02:23:57;;;;;;;16.13;14.00;;;;;;;;;;4972670;28;20205;-73
2022/04/23 02:26:23;;;;;;;16.77;14.13;;;;;;;;;;4969852;28;20188;-73
2022/04/23 02:28:51;;;;;;;16.80;13.90;;;;;;;;;;4973213;28;20177;-73
2022/04/23 02:31:16;;;;;;;16.97;13.33;;;;;;;;;;4971236;28;20267;-73
2022/04/23 02:33:41;;;;;;;14.57;13.03;;;;;;;;;;4974651;28;20263;-72
2022/04/23 02:36:08;;;;;;;16.07;13.33;;;;;;;;;;4984495;28;20187;-73
2022/04/23 02:38:33;;;;;;;15.63;12.83;;;;;;;;;;4971945;28;20196;-73
2022/04/23 02:40:58;;;;;;;17.50;14.07;;;;;;;;;;4970136;28;20181;-73
2022/04/23 02:43:23;;;;;;;15.13;13.27;;;;;;;;;;4971242;28;21815;-73
2022/04/23 02:45:49;;;;;;;16.03;12.10;;;;;;;;;;4970945;28;20191;-73
2022/04/23 02:48:14;;;;;;;16.63;14.20;;;;;;;;;;4975944;28;20212;-72
2022/04/23 02:50:40;;;;;;;15.60;13.67;;;;;;;;;;4973103;28;20177;-72
2022/04/23 02:53:05;;;;;;;20.10;13.27;;;;;;;;;;4969571;28;20491;-73
2022/04/23 02:55:31;;;;;;;16.77;12.57;;;;;;;;;;4971479;28;20260;-73
2022/04/23 02:58:00;;;;;;;18.77;13.67;;;;;;;;;;4969478;28;20188;-72
2022/04/23 03:00:25;;;;;;;17.63;14.37;;;;;;;;;;4977755;28;20202;-73
2022/04/23 03:02:52;;;;;;;18.03;13.67;;;;;;;;;;4971515;28;20267;-73
2022/04/23 03:05:17;;;;;;;20.33;14.13;;;;;;;;;;4972251;28;20191;-73
2022/04/23 03:07:43;;;;;;;17.10;13.80;;;;;;;;;;4970528;28;20208;-73
2022/04/23 03:10:10;;;;;;;17.20;14.07;;;;;;;;;;4973978;28;20209;-73
2022/04/23 03:12:36;;;;;;;15.83;13.20;;;;;;;;;;4971750;28;20188;-72
2022/04/23 03:15:02;;;;;;;15.90;12.83;;;;;;;;;;4980237;28;20177;-72
2022/04/23 03:17:27;;;;;;;15.57;13.10;;;;;;;;;;4970574;28;20185;-72
2022/04/23 03:19:53;;;;;;;15.10;12.40;;;;;;;;;;4970430;28;20205;-73
2022/04/23 03:22:20;;;;;;;16.20;13.57;;;;;;;;;;4971194;28;20235;-73
2022/04/23 03:24:46;;;;;;;15.53;12.77;;;;;;;;;;4971325;28;20177;-73
2022/04/23 03:27:11;;;;;;;16.10;13.57;;;;;;;;;;4974580;28;20347;-73
2022/04/23 03:29:36;;;;;;;15.47;13.13;;;;;;;;;;4971572;28;20297;-73
2022/04/23 03:32:02;;;;;;;15.00;12.77;;;;;;;;;;4971589;28;20184;-73
2022/04/23 03:34:27;;;;;;;13.13;11.73;;;;;;;;;;4968969;28;20177;-73
2022/04/23 03:36:53;;;;;;;16.27;11.77;;;;;;;;;;4970109;28;20204;-73
2022/04/23 03:39:19;;;;;;;15.63;12.70;;;;;;;;;;4972423;28;20248;-73
2022/04/23 03:41:44;;;;;;;16.23;13.50;;;;;;;;;;4968829;28;20279;-73
2022/04/23 03:44:09;;;;;;;16.10;13.57;;;;;;;;;;4973459;28;20194;-73
2022/04/23 03:46:35;;;;;;;15.07;12.83;;;;;;;;;;4979333;28;20268;-73
2022/04/23 03:49:00;;;;;;;16.13;14.00;;;;;;;;;;4972181;28;20188;-73
2022/04/23 03:51:25;;;;;;;15.97;13.30;;;;;;;;;;4966396;28;20312;-73
2022/04/23 03:53:53;;;;;;;16.23;13.70;;;;;;;;;;4969635;28;20264;-73
2022/04/23 03:56:18;;;;;;;16.07;13.83;;;;;;;;;;4966076;28;20181;-73
2022/04/23 03:58:44;;;;;;;16.13;13.20;;;;;;;;;;4970317;28;20195;-73
2022/04/23 04:01:09;;;;;;;16.10;14.40;;;;;;;;;;4968716;28;20185;-73
2022/04/23 04:03:34;;;;;;;17.73;14.53;;;;;;;;;;4971730;28;20184;-73
2022/04/23 04:06:00;;;;;;;18.97;13.93;;;;;;;;;;4964943;28;20221;-73
2022/04/23 04:08:25;;;;;;;18.73;15.53;;;;;;;;;;4969794;28;20258;-73
2022/04/23 04:10:50;;;;;;;15.13;12.70;;;;;;;;;;4969088;28;20239;-73
2022/04/23 04:13:15;;;;;;;16.43;13.30;;;;;;;;;;4970959;28;20188;-73
2022/04/23 04:15:41;;;;;;;14.87;13.27;;;;;;;;;;4969566;28;20180;-73
2022/04/23 04:18:06;;;;;;;17.07;14.20;;;;;;;;;;4973636;28;20252;-73
2022/04/23 04:20:34;;;;;;;19.03;13.93;;;;;;;;;;4969948;28;20282;-73
2022/04/23 04:23:00;;;;;;;18.47;15.17;;;;;;;;;;4968227;28;20221;-73
2022/04/23 04:25:25;;;;;;;17.40;15.37;;;;;;;;;;4968385;28;20655;-73
2022/04/23 04:27:50;;;;;;;18.60;15.27;;;;;;;;;;4970154;28;20280;-73
2022/04/23 04:30:16;;;;;;;17.20;14.60;;;;;;;;;;4968349;28;20185;-73
2022/04/23 04:32:41;;;;;;;17.97;14.87;;;;;;;;;;4970636;28;20199;-73
2022/04/23 04:35:07;;;;;;;17.13;13.67;;;;;;;;;;4967783;28;20191;-74
2022/04/23 04:37:33;;;;;;;17.53;14.50;;;;;;;;;;4970410;28;20208;-73
2022/04/23 04:39:58;;;;;;;18.07;15.10;;;;;;;;;;4966493;28;20180;-73
2022/04/23 04:42:23;;;;;;;17.20;14.00;;;;;;;;;;4968375;28;20189;-73
2022/04/23 04:44:49;;;;;;;17.63;14.87;;;;;;;;;;4966036;28;20286;-73
2022/04/23 04:47:15;;;;;;;17.50;14.77;;;;;;;;;;4969545;28;20209;-72
2022/04/23 04:49:40;;;;;;;21.57;15.63;;;;;;;;;;4968100;28;20182;-72
2022/04/23 04:52:06;;;;;;;19.40;16.10;;;;;;;;;;4969863;28;20184;-72
2022/04/23 04:54:31;;;;;;;16.10;14.40;;;;;;;;;;4978373;28;20185;-73
2022/04/23 04:56:56;;;;;;;18.10;15.30;;;;;;;;;;4967066;28;20243;-72
2022/04/23 04:59:22;;;;;;;17.40;15.30;;;;;;;;;;4966806;28;20194;-72
2022/04/23 05:01:48;;;;;;;20.07;16.50;;;;;;;;;;4967070;28;20271;-73
2022/04/23 05:04:13;;;;;;;21.07;16.97;;;;;;;;;;4968941;28;20184;-73
2022/04/23 05:06:38;;;;;;;20.87;17.33;;;;;;;;;;4969337;28;20189;-73
2022/04/23 05:09:03;;;;;;;20.50;16.63;;;;;;;;;;4969448;28;20188;-73
2022/04/23 05:11:29;;;;;;;19.40;14.87;;;;;;;;;;4973487;28;20176;-72
2022/04/23 05:13:56;;;;;;;23.83;19.00;;;;;;;;;;4966743;28;20180;-73
2022/04/23 05:16:22;;;;;;;22.60;17.40;;;;;;;;;;4968023;28;20251;-73
2022/04/23 05:18:47;;;;;;;20.93;17.33;;;;;;;;;;4967012;28;20281;-73
2022/04/23 05:21:12;;;;;;;18.80;15.03;;;;;;;;;;4970720;28;20208;-72
2022/04/23 05:23:37;;;;;;;19.67;16.60;;;;;;;;;;4972220;28;20240;-73
2022/04/23 05:26:03;;;;;;;23.27;14.23;;;;;;;;;;4969115;28;20178;-73
2022/04/23 05:28:29;;;;;;;19.83;16.73;;;;;;;;;;4972854;28;20214;-73
2022/04/23 05:30:54;;;;;;;19.10;16.07;;;;;;;;;;4970163;28;20186;-73
2022/04/23 05:33:19;;;;;;;19.73;16.57;;;;;;;;;;4970458;28;20254;-73
2022/04/23 05:35:44;;;;;;;22.80;17.00;;;;;;;;;;4986196;28;20183;-73
2022/04/23 05:38:09;;;;;;;19.63;14.77;;;;;;;;;;4970027;28;20180;-73
2022/04/23 05:40:35;;;;;;;19.20;16.00;;;;;;;;;;4971030;28;20242;-73
2022/04/23 05:43:00;;;;;;;18.97;14.17;;;;;;;;;;4970869;28;20186;-73
2022/04/23 05:45:26;;;;;;;19.13;14.83;;;;;;;;;;4969900;28;20188;-73
2022/04/23 05:47:51;;;;;;;18.83;14.87;;;;;;;;;;4979250;28;20230;-73
2022/04/23 05:50:16;;;;;;;17.67;15.70;;;;;;;;;;4977884;28;20630;-72
2022/04/23 05:52:41;;;;;;;17.63;14.97;;;;;;;;;;4976496;28;20194;-73
2022/04/23 05:55:07;;;;;;;20.70;15.97;;;;;;;;;;4974256;28;20184;-73
2022/04/23 05:57:33;;;;;;;18.67;16.10;;;;;;;;;;4975676;28;20187;-73
2022/04/23 05:59:58;;;;;;;20.30;15.90;;;;;;;;;;4972852;28;20180;-73
2022/04/23 06:02:23;;;;;;;19.10;15.80;;;;;;;;;;4987621;28;20194;-73
2022/04/23 06:04:49;;;;;;;21.10;14.93;;;;;;;;;;4989018;28;20184;-73
2022/04/23 06:07:15;;;;;;;17.33;14.73;;;;;;;;;;4990225;28;20221;-72
2022/04/23 06:09:40;;;;;;;17.73;13.90;;;;;;;;;;4975492;28;20183;-73
2022/04/23 06:12:06;;;;;;;15.53;12.60;;;;;;;;;;4988653;28;20211;-73
2022/04/23 06:14:31;;;;;;;17.10;14.33;;;;;;;;;;4991085;28;20177;-72
2022/04/23 06:16:56;;;;;;;17.97;14.53;;;;;;;;;;4997986;28;20174;-73
2022/04/23 06:19:21;;;;;;;16.37;13.10;;;;;;;;;;4977461;28;20272;-72
2022/04/23 06:21:46;;;;;;;15.43;12.97;;;;;;;;;;4975945;28;20220;-73
2022/04/23 06:24:12;;;;;;;17.77;13.63;;;;;;;;;;4992984;28;20187;-72
2022/04/23 06:26:38;;;;;;;17.00;13.67;;;;;;;;;;4987265;28;20238;-72
2022/04/23 06:29:03;;;;;;;16.60;13.23;;;;;;;;;;4992457;28;20180;-72
2022/04/23 06:31:28;;;;;;;14.53;13.00;;;;;;;;;;4988903;28;20176;-73
2022/04/23 06:33:53;;;;;;;17.37;14.43;;;;;;;;;;4973874;28;20207;-72
2022/04/23 06:36:18;;;;;;;14.07;12.57;;;;;;;;;;4976563;28;20202;-73
2022/04/23 06:38:44;;;;;;;13.93;12.07;;;;;;;;;;4975557;28;20270;-72
2022/04/23 06:41:09;;;;;;;14.90;12.03;;;;;;;;;;4984349;28;20188;-73
2022/04/23 06:43:34;;;;;;;16.00;12.53;;;;;;;;;;4992815;28;20294;-72
2022/04/23 06:45:59;;;;;;;14.90;12.63;;;;;;;;;;4973232;28;20628;-73
2022/04/23 06:48:24;;;;;;;15.63;13.93;;;;;;;;;;4992060;28;20206;-73
2022/04/23 06:50:50;;;;;;;16.33;13.77;;;;;;;;;;4984909;28;20177;-73
2022/04/23 06:53:15;;;;;;;16.40;13.47;;;;;;;;;;4979801;28;20188;-73
2022/04/23 06:55:40;;;;;;;14.17;12.23;;;;;;;;;;4974134;28;20192;-73
2022/04/23 06:58:05;;;;;;;18.80;13.73;;;;;;;;;;4974731;28;20243;-73
2022/04/23 07:00:30;;;;;;;15.37;13.63;;;;;;;;;;4973994;28;20180;-73
2022/04/23 07:02:56;;;;;;;15.17;13.37;;;;;;;;;;4974022;28;20630;-72
2022/04/23 07:05:21;;;;;;;17.03;13.30;;;;;;;;;;4978111;28;20240;-73
2022/04/23 07:07:53;;;;;;;15.23;13.27;;;;;;;;;;4974924;28;20188;-73
2022/04/23 07:10:18;;;;;;;15.63;12.23;;;;;;;;;;4971300;28;20238;-73
2022/04/23 07:12:43;;;;;;;15.27;12.97;;;;;;;;;;4973976;28;20177;-72
2022/04/23 07:15:08;;;;;;;17.93;11.03;;;;;;;;;;4980210;28;20407;-72
2022/04/23 07:17:33;;;;;;;16.00;12.83;;;;;;;;;;4977611;28;20184;-72
2022/04/23 07:19:59;;;;;;;16.40;13.30;;;;;;;;;;4978092;28;20235;-73
2022/04/23 07:22:25;;;;;;;17.73;13.07;;;;;;;;;;4971538;28;20233;-72
2022/04/23 07:24:50;;;;;;;16.03;13.37;;;;;;;;;;4969332;28;20246;-73
2022/04/23 07:27:15;;;;;;;16.87;13.00;;;;;;;;;;4971598;28;20212;-73
2022/04/23 07:29:40;;;;;;;17.23;14.90;;;;;;;;;;4970805;28;20177;-72
2022/04/23 07:32:06;;;;;;;16.30;12.80;;;;;;;;;;4971027;28;20177;-73
2022/04/23 07:37:34;;;;;;;13.47;11.10;;;;;;;;;;4970165;28;20219;-73
2022/04/23 07:40:00;;;;;;;17.93;13.17;;;;;;;;;;4966465;28;20275;-73
2022/04/23 07:42:26;;;;;;;18.10;15.60;;;;;;;;;;4969516;28;20193;-73
2022/04/23 07:44:51;;;;;;;16.83;12.67;;;;;;;;;;4971313;28;20185;-73
2022/04/23 07:47:16;;;;;;;14.93;12.77;;;;;;;;;;4969609;28;20215;-73
2022/04/23 07:49:42;;;;;;;14.43;12.83;;;;;;;;;;4969091;28;20181;-73
2022/04/23 07:52:07;;;;;;;13.60;11.27;;;;;;;;;;4967802;28;20180;-72
2022/04/23 07:54:32;;;;;;;16.03;11.60;;;;;;;;;;4985692;28;20173;-73
2022/04/23 07:56:58;;;;;;;12.87;10.17;;;;;;;;;;4970847;28;20181;-73
2022/04/23 07:59:24;;;;;;;12.57;10.73;;;;;;;;;;4971009;28;20208;-72
2022/04/23 08:01:50;;;;;;;15.33;12.43;;;;;;;;;;4968048;28;20177;-72
2022/04/23 08:04:15;;;;;;;13.50;10.77;;;;;;;;;;4971370;28;20204;-72
2022/04/23 08:06:40;;;;;;;14.23;11.10;;;;;;;;;;4969601;28;20181;-73
2022/04/23 08:09:05;;;;;;;13.97;11.83;;;;;;;;;;4979984;28;20203;-73
2022/04/23 08:11:31;;;;;;;12.83;10.53;;;;;;;;;;4968911;28;20184;-72
2022/04/23 08:13:56;;;;;;;12.17;10.90;;;;;;;;;;4982355;28;20180;-72
2022/04/23 08:16:22;;;;;;;12.33;10.60;;;;;;;;;;4975162;28;20205;-73
2022/04/23 08:18:47;;;;;;;13.37;10.53;;;;;;;;;;4970332;28;20216;-73
2022/04/23 08:21:12;;;;;;;10.53;9.43;;;;;;;;;;4970573;28;20206;-73
2022/04/23 08:23:37;;;;;;;12.00;10.47;;;;;;;;;;4991683;28;20188;-72
2022/04/23 08:26:03;;;;;;;11.80;10.60;;;;;;;;;;4972825;28;20194;-73
2022/04/23 08:31:12;;;;;;;11.47;10.23;;;;;;;;;;4988066;28;20203;-72
2022/04/23 08:36:22;;;;;;;10.13;8.30;;;;;;;;;;4985194;28;20192;-73
2022/04/23 08:38:47;;;;;;;9.00;8.10;;;;;;;;;;4972805;28;20180;-73
2022/04/23 08:41:12;;;;;;;9.93;8.57;;;;;;;;;;4987981;28;20177;-72
2022/04/23 08:43:37;;;;;;;10.93;9.83;;;;;;;;;;4972129;28;20251;-73
2022/04/23 08:46:03;;;;;;;12.60;11.30;;;;;;;;;;4972129;28;20212;-72
2022/04/23 08:48:31;;;;;;;9.37;8.37;;;;;;;;;;4971943;28;20210;-72
2022/04/23 08:50:58;;;;;;;10.53;8.60;;;;;;;;;;4969151;28;20321;-73
2022/04/23 08:53:25;;;;;;;10.30;8.00;;;;;;;;;;4974293;28;20275;-73
2022/04/23 08:55:51;;;;;;;10.93;9.83;;;;;;;;;;4985807;28;20180;-73
2022/04/23 08:58:17;;;;;;;8.47;7.53;;;;;;;;;;4976096;28;20191;-73
2022/04/23 09:00:43;;;;;;;9.23;8.33;;;;;;;;;;4972848;28;20276;-72
2022/04/23 09:03:16;;;;;;;9.17;7.83;;;;;;;;;;4982194;28;20300;-73
2022/04/23 09:05:43;;;;;;;8.93;7.23;;;;;;;;;;4972401;28;20261;-73
2022/04/23 09:08:08;;;;;;;9.03;7.77;;;;;;;;;;4993010;28;20218;-73
2022/04/23 09:10:47;;;;;;;8.90;7.97;;;;;;;;;;4970865;28;20267;-73
2022/04/23 09:13:25;;;;;;;9.70;8.73;;;;;;;;;;4988773;28;20192;-73
2022/04/23 09:24:18;;;;;;;8.27;7.47;;;;;;;;;;4992742;28;20212;-72
2022/04/23 09:26:43;;;;;;;9.60;7.60;;;;;;;;;;4974374;28;20188;-73
2022/04/23 09:29:12;;;;;;;9.90;7.10;;;;;;;;;;4989121;28;20233;-73
2022/04/23 09:31:38;;;;;;;8.50;6.80;;;;;;;;;;4971637;28;20243;-73
2022/04/23 09:34:13;;;;;;;8.67;7.77;;;;;;;;;;4988534;28;21749;-73
2022/04/23 09:36:56;;;;;;;8.70;7.67;;;;;;;;;;4971058;28;20180;-73
2022/04/23 09:39:31;;;;;;;9.37;8.17;;;;;;;;;;4972631;28;20180;-73
2022/04/23 09:42:17;;;;;;;9.03;7.40;;;;;;;;;;4979036;28;20181;-73
2022/04/23 09:44:43;;;;;;;8.83;7.93;;;;;;;;;;4985198;28;20213;-73
2022/04/23 09:47:08;;;;;;;9.03;8.10;;;;;;;;;;4989749;28;20206;-73
2022/04/23 09:49:34;;;;;;;8.40;7.60;;;;;;;;;;4971438;28;20185;-73
2022/04/23 09:52:04;;;;;;;9.37;8.37;;;;;;;;;;4985576;28;20207;-73
2022/04/23 09:54:29;;;;;;;8.17;7.37;;;;;;;;;;4971551;28;20183;-72
2022/04/23 09:56:55;;;;;;;13.77;8.27;;;;;;;;;;4970547;28;20251;-73
2022/04/23 09:59:20;;;;;;;9.77;7.73;;;;;;;;;;4972650;28;20182;-73
2022/04/23 10:01:47;;;;;;;10.97;9.17;;;;;;;;;;4985640;28;20182;-73
2022/04/23 10:04:13;;;;;;;11.80;9.77;;;;;;;;;;4969421;28;20181;-73
2022/04/23 10:06:41;;;;;;;10.00;9.00;;;;;;;;;;4981235;28;20222;-73
2022/04/23 10:09:07;;;;;;;9.37;8.40;;;;;;;;;;4985809;28;20191;-73
2022/04/23 10:11:35;;;;;;;10.53;7.90;;;;;;;;;;4963574;28;20185;-73
2022/04/23 10:14:04;;;;;;;9.97;7.57;;;;;;;;;;4970997;28;20197;-73
2022/04/23 10:16:30;;;;;;;7.07;6.37;;;;;;;;;;4986253;28;20185;-73
2022/04/23 10:18:56;;;;;;;7.40;6.60;;;;;;;;;;4976142;28;20220;-73
2022/04/23 10:21:26;;;;;;;9.97;7.70;;;;;;;;;;4981998;28;20227;-73
2022/04/23 10:24:06;;;;;;;8.10;7.30;;;;;;;;;;4985644;28;20193;-73
2022/04/23 10:26:34;;;;;;;8.47;7.57;;;;;;;;;;4966696;28;20179;-77
2022/04/23 10:29:00;;;;;;;7.77;6.97;;;;;;;;;;4972709;28;20207;-74
2022/04/23 10:31:25;;;;;;;9.97;8.40;;;;;;;;;;4969570;28;20193;-73
2022/04/23 10:33:51;;;;;;;9.17;7.57;;;;;;;;;;4975788;28;20230;-73
2022/04/23 10:36:17;;;;;;;8.80;7.50;;;;;;;;;;4981283;28;20282;-73
2022/04/23 10:38:45;;;;;;;7.70;6.90;;;;;;;;;;4990497;28;20214;-74
2022/04/23 10:41:12;;;;;;;8.10;7.30;;;;;;;;;;4989377;28;20183;-73
2022/04/23 10:43:52;;;;;;;8.87;7.60;;;;;;;;;;4976212;28;20183;-73
2022/04/23 10:46:36;;;;;;;8.40;7.13;;;;;;;;;;4991176;28;20180;-73
2022/04/23 10:49:17;;;;;;;8.83;7.93;;;;;;;;;;4980505;28;20203;-73
2022/04/23 10:51:47;;;;;;;7.87;7.07;;;;;;;;;;4973747;28;20172;-73
2022/04/23 10:54:12;;;;;;;10.53;7.80;;;;;;;;;;4991226;28;20175;-73
2022/04/23 10:56:37;;;;;;;8.93;7.03;;;;;;;;;;4991074;28;20195;-73
2022/04/23 10:59:03;;;;;;;9.20;7.40;;;;;;;;;;4976121;28;20198;-73
2022/04/23 11:01:29;;;;;;;8.50;7.53;;;;;;;;;;4974723;28;20356;-74
2022/04/23 11:03:55;;;;;;;8.30;6.93;;;;;;;;;;4993307;28;20187;-73
2022/04/23 11:12:27;;;;;;;8.43;6.37;;;;;;;;;;4987249;28;20217;-73
2022/04/23 11:14:53;;;;;;;8.13;6.67;;;;;;;;;;4988624;28;20192;-73
2022/04/23 11:17:23;;;;;;;12.93;8.20;;;;;;;;;;4975954;28;20239;-73
2022/04/23 11:19:54;;;;;;;6.70;6.00;;;;;;;;;;4977285;28;20285;-73
2022/04/23 11:22:20;;;;;;;6.87;6.20;;;;;;;;;;4991937;28;20235;-74
2022/04/23 11:24:47;;;;;;;8.20;7.30;;;;;;;;;;4974747;28;20208;-73
2022/04/23 11:27:25;;;;;;;8.40;6.80;;;;;;;;;;4971748;28;20211;-74
2022/04/23 11:29:53;;;;;;;11.70;7.00;;;;;;;;;;4968819;28;20262;-74
2022/04/23 11:32:25;;;;;;;7.43;6.10;;;;;;;;;;4987813;28;20184;-73
2022/04/23 11:34:56;;;;;;;7.93;6.97;;;;;;;;;;4980368;28;20231;-73
2022/04/23 11:37:34;;;;;;;8.47;6.20;;;;;;;;;;4989373;28;20181;-73
2022/04/23 11:40:03;;;;;;;6.07;5.47;;;;;;;;;;4986029;28;20199;-73
2022/04/23 11:42:42;;;;;;;6.43;5.73;;;;;;;;;;4991402;28;20184;-73
2022/04/23 11:45:08;;;;;;;8.53;6.70;;;;;;;;;;4990729;28;20286;-73
2022/04/23 11:47:34;;;;;;;6.53;5.73;;;;;;;;;;4989863;28;20215;-73
2022/04/23 11:50:15;;;;;;;8.17;4.03;;;;;;;;;;4976251;28;20262;-73
2022/04/23 11:52:41;;;;;;;6.93;6.23;;;;;;;;;;4992906;28;20184;-73
2022/04/23 11:55:08;;;;;;;7.20;5.87;;;;;;;;;;4990757;28;20184;-74
2022/04/23 11:57:34;;;;;;;7.40;5.80;;;;;;;;;;4972747;28;20296;-74
2022/04/23 12:00:00;;;;;;;6.63;5.30;;;;;;;;;;4979481;28;20243;-73
2022/04/23 12:02:26;;;;;;;7.00;5.57;;;;;;;;;;4988092;28;20200;-74
2022/04/23 12:04:57;;;;;;;7.17;6.47;;;;;;;;;;4981097;28;20173;-73
2022/04/23 12:07:22;;;;;;;6.63;5.93;;;;;;;;;;4988779;28;20207;-73
2022/04/23 12:09:52;;;;;;;6.43;5.57;;;;;;;;;;4977486;28;20178;-73
2022/04/23 12:12:21;;;;;;;6.50;5.90;;;;;;;;;;4989831;28;20185;-74
2022/04/23 12:14:46;;;;;;;8.60;6.47;;;;;;;;;;4981192;28;20208;-73
2022/04/23 12:17:19;;;;;;;6.70;5.87;;;;;;;;;;4971822;28;20208;-74
2022/04/23 12:19:45;;;;;;;8.50;6.13;;;;;;;;;;4976235;28;20211;-74
2022/04/23 12:22:20;;;;;;;8.57;5.27;;;;;;;;;;4968369;28;20283;-73
2022/04/23 12:24:45;;;;;;;8.33;5.73;;;;;;;;;;4969581;28;20191;-73
2022/04/23 12:27:11;;;;;;;8.63;6.13;;;;;;;;;;4969610;28;20201;-73
2022/04/23 12:40:45;;;;;;;6.30;5.40;;;;;;;;;;4969758;28;20281;-73
2022/04/23 12:43:24;;;;;;;6.80;5.10;;;;;;;;;;4976572;28;20249;-73
2022/04/23 12:45:49;;;;;;;6.60;5.90;;;;;;;;;;4969368;28;20188;-73
2022/04/23 12:48:15;;;;;;;7.10;5.70;;;;;;;;;;4975189;28;20271;-73
2022/04/23 12:50:42;;;;;;;6.97;6.27;;;;;;;;;;4969768;28;20177;-73
2022/04/23 12:53:08;;;;;;;7.03;5.93;;;;;;;;;;4970086;28;20177;-73
2022/04/23 12:55:37;;;;;;;6.33;5.27;;;;;;;;;;4970798;28;20219;-73
2022/04/23 12:58:02;;;;;;;7.60;6.03;;;;;;;;;;4972923;28;20169;-74
2022/04/23 13:00:28;;;;;;;6.97;6.28;;;;;;;;;;4966362;28;20218;-73
2022/04/23 13:02:56;;;;;;;7.43;6.17;;;;;;;;;;4965122;28;20192;-73
2022/04/23 13:05:22;;;;;;;7.07;6.37;;;;;;;;;;4967949;28;20189;-73
2022/04/23 13:10:31;;;;;;;9.27;7.47;;;;;;;;;;4960585;28;20219;-73
2022/04/23 13:12:56;;;;;;;8.80;7.37;;;;;;;;;;4970221;28;20181;-73
2022/04/23 13:15:22;;;;;;;7.33;6.27;;;;;;;;;;4970692;28;20216;-73
2022/04/23 13:17:48;;;;;;;8.50;6.40;;;;;;;;;;4983565;28;20177;-73
2022/04/23 13:20:13;;;;;;;9.77;6.57;;;;;;;;;;4969270;28;20223;-74
2022/04/23 13:22:43;;;;;;;8.50;7.30;;;;;;;;;;4981378;28;20295;-73
2022/04/23 13:25:09;;;;;;;8.53;7.63;;;;;;;;;;4988491;28;20187;-73
2022/04/23 13:27:34;;;;;;;12.00;8.00;;;;;;;;;;4971429;28;20238;-74
2022/04/23 13:29:59;;;;;;;9.50;8.13;;;;;;;;;;4986240;28;20187;-73
2022/04/23 13:32:25;;;;;;;9.63;8.20;;;;;;;;;;4985566;28;20538;-74
2022/04/23 13:34:51;;;;;;;7.87;6.60;;;;;;;;;;4971976;28;20215;-73
2022/04/23 13:37:17;;;;;;;8.37;7.43;;;;;;;;;;4980356;28;20184;-73
2022/04/23 13:39:42;;;;;;;8.70;7.80;;;;;;;;;;4985643;28;20243;-73
2022/04/23 13:42:07;;;;;;;7.23;6.53;;;;;;;;;;4986838;28;20279;-74
2022/04/23 13:44:34;;;;;;;7.70;6.90;;;;;;;;;;4989123;28;20187;-74
2022/04/23 13:46:59;;;;;;;11.17;8.07;;;;;;;;;;4989212;28;20184;-73
2022/04/23 13:49:24;;;;;;;11.80;7.83;;;;;;;;;;4972312;28;20187;-73
2022/04/23 13:51:50;;;;;;;11.70;8.23;;;;;;;;;;4991294;28;20171;-73
2022/04/23 13:54:15;;;;;;;10.90;7.43;;;;;;;;;;4991015;28;20191;-74
2022/04/23 13:56:41;;;;;;;13.00;6.97;;;;;;;;;;4968950;28;20183;-74
2022/04/23 13:59:10;;;;;;;8.77;6.77;;;;;;;;;;4988258;28;20187;-73
2022/04/23 14:01:36;;;;;;;7.83;6.93;;;;;;;;;;4972714;28;20280;-74
2022/04/23 14:12:13;;;;;;;10.50;7.07;;;;;;;;;;4987778;28;20238;-73
2022/04/23 14:14:38;;;;;;;11.30;8.13;;;;;;;;;;4992372;28;20263;-73
2022/04/23 14:17:03;;;;;;;8.20;6.80;;;;;;;;;;4983987;28;20191;-73
2022/04/23 14:19:28;;;;;;;8.70;7.10;;;;;;;;;;4995368;28;20296;-74
2022/04/23 14:21:54;;;;;;;9.00;6.83;;;;;;;;;;4976989;28;20233;-73
2022/04/23 14:24:19;;;;;;;9.77;7.70;;;;;;;;;;4996844;28;20188;-73
2022/04/23 14:26:44;;;;;;;10.20;7.40;;;;;;;;;;4972798;28;20173;-73
2022/04/23 14:29:09;;;;;;;9.10;8.20;;;;;;;;;;4973071;28;20211;-73
2022/04/23 14:31:34;;;;;;;9.90;7.63;;;;;;;;;;4989363;28;20268;-73
2022/04/23 14:34:01;;;;;;;8.43;7.13;;;;;;;;;;4992943;28;20176;-73
2022/04/23 14:36:26;;;;;;;13.87;7.27;;;;;;;;;;4977780;28;20279;-77
2022/04/23 14:38:53;;;;;;;16.33;9.27;;;;;;;;;;4974042;28;20311;-73
2022/04/23 14:41:18;;;;;;;9.10;6.63;;;;;;;;;;4971954;28;20240;-73
2022/04/23 14:43:44;;;;;;;8.97;8.07;;;;;;;;;;4990233;28;20185;-73
2022/04/23 14:46:09;;;;;;;8.87;7.37;;;;;;;;;;4978522;28;20180;-74
2022/04/23 14:48:34;;;;;;;7.73;6.93;;;;;;;;;;4980537;28;20201;-73
2022/04/23 14:53:44;;;;;;;8.00;7.17;;;;;;;;;;4992053;28;20181;-73
2022/04/23 14:56:09;;;;;;;8.40;7.50;;;;;;;;;;4973278;28;20176;-73
2022/04/23 14:58:35;;;;;;;7.67;6.90;;;;;;;;;;4976721;28;20180;-74
2022/04/23 15:01:00;;;;;;;7.63;6.83;;;;;;;;;;4977733;28;20241;-73
2022/04/23 15:03:25;;;;;;;9.53;7.70;;;;;;;;;;4988460;28;20185;-73
2022/04/23 15:05:50;;;;;;;8.03;7.23;;;;;;;;;;4982096;28;20178;-73
2022/04/23 15:08:16;;;;;;;9.70;8.70;;;;;;;;;;4978172;28;20220;-73